createdAt,value
2018-06-02T00:02:27.240Z,42.73
2018-06-02T00:04:54.712Z,45.47
2018-06-02T00:07:22.160Z,38.23
2018-06-02T00:09:49.637Z,40.17
2018-06-02T00:12:17.105Z,33.57
2018-06-02T00:14:44.545Z,37.33
2018-06-02T00:17:12.004Z,31.53
2018-06-02T00:19:39.461Z,39.80
2018-06-02T00:22:06.896Z,46.43
2018-06-02T00:24:34.371Z,44.43
2018-06-02T00:27:01.806Z,46.40
2018-06-02T00:29:29.261Z,39.80
2018-06-02T00:31:56.700Z,44.97
2018-06-02T00:34:24.931Z,42.43
2018-06-02T00:36:52.372Z,39.80
2018-06-02T00:39:20.614Z,43.27
2018-06-02T00:41:48.828Z,39.90
2018-06-02T00:44:16.270Z,43.00
2018-06-02T00:46:43.744Z,43.20
2018-06-02T00:49:11.177Z,41.27
2018-06-02T00:51:38.641Z,39.97
2018-06-02T00:54:06.080Z,38.67
2018-06-02T00:56:33.549Z,43.30
2018-06-02T00:59:00.996Z,42.60
2018-06-02T01:01:28.471Z,36.60
2018-06-02T01:03:55.924Z,35.07
2018-06-02T01:06:23.410Z,36.57
2018-06-02T01:08:50.854Z,33.73
2018-06-02T01:11:18.291Z,34.60
2018-06-02T01:13:45.745Z,31.80
2018-06-02T01:16:13.177Z,40.43
2018-06-02T01:18:40.644Z,28.03
2018-06-02T01:21:08.847Z,32.17
2018-06-02T01:23:36.309Z,31.70
2018-06-02T01:26:03.749Z,33.27
2018-06-02T01:28:31.216Z,30.70
2018-06-02T01:30:59.436Z,25.97
2018-06-02T01:33:26.883Z,25.43
2018-06-02T01:35:54.334Z,28.60
2018-06-02T01:38:21.792Z,29.50
2018-06-02T01:40:49.232Z,27.23
2018-06-02T01:43:16.709Z,24.53
2018-06-02T01:45:44.149Z,32.00
2018-06-02T01:48:11.588Z,33.53
2018-06-02T01:50:39.064Z,29.03
2018-06-02T01:53:06.550Z,30.33
2018-06-02T01:55:33.999Z,35.77
2018-06-02T01:58:01.457Z,26.23
2018-06-02T02:00:28.917Z,28.57
2018-06-02T02:02:56.403Z,28.57
2018-06-02T02:05:24.608Z,27.60
2018-06-02T02:07:52.072Z,28.33
2018-06-02T02:10:19.541Z,24.80
2018-06-02T02:12:47.000Z,28.50
2018-06-02T02:15:14.458Z,29.03
2018-06-02T02:17:42.679Z,27.37
2018-06-02T02:20:10.142Z,30.93
2018-06-02T02:22:37.600Z,28.00
2018-06-02T02:25:05.066Z,26.83
2018-06-02T02:27:32.514Z,28.63
2018-06-02T02:29:59.952Z,29.23
2018-06-02T02:32:27.422Z,32.57
2018-06-02T02:34:54.859Z,31.63
2018-06-02T02:37:22.340Z,26.07
2018-06-02T02:39:50.568Z,29.60
2018-06-02T02:42:18.063Z,30.20
2018-06-02T02:44:45.515Z,30.53
2018-06-02T02:47:13.736Z,33.93
2018-06-02T02:49:41.225Z,33.67
2018-06-02T02:52:08.677Z,32.70
2018-06-02T02:54:36.156Z,29.37
2018-06-02T02:57:03.601Z,36.93
2018-06-02T02:59:31.103Z,33.83
2018-06-02T03:01:58.570Z,27.10
2018-06-02T03:04:26.140Z,31.70
2018-06-02T03:06:53.624Z,31.73
2018-06-02T03:09:21.080Z,27.80
2018-06-02T03:11:48.567Z,25.97
2018-06-02T03:14:16.052Z,22.23
2018-06-02T03:16:43.592Z,24.23
2018-06-02T03:19:11.842Z,23.00
2018-06-02T03:21:39.317Z,23.07
2018-06-02T03:24:07.568Z,24.70
2018-06-02T03:26:35.028Z,21.37
2018-06-02T03:29:02.527Z,23.43
2018-06-02T03:31:30.744Z,21.90
2018-06-02T03:33:58.233Z,22.00
2018-06-02T03:36:25.692Z,22.90
2018-06-02T03:38:53.956Z,21.63
2018-06-02T03:41:21.424Z,22.90
2018-06-02T03:43:49.652Z,24.47
2018-06-02T03:46:17.152Z,24.17
2018-06-02T03:48:44.638Z,26.07
2018-06-02T03:51:12.124Z,25.60
2018-06-02T03:53:39.828Z,26.23
2018-06-02T03:56:07.280Z,26.20
2018-06-02T03:58:34.790Z,26.33
2018-06-02T04:01:02.248Z,25.57
2018-06-02T04:03:29.737Z,25.57
2018-06-02T04:05:57.226Z,27.40
2018-06-02T04:08:25.466Z,24.77
2018-06-02T04:10:52.946Z,24.57
2018-06-02T04:13:21.292Z,21.20
2018-06-02T04:15:48.790Z,24.37
2018-06-02T04:18:16.239Z,20.97
2018-06-02T04:20:43.714Z,23.87
2018-06-02T04:23:11.974Z,21.07
2018-06-02T04:25:39.437Z,25.53
2018-06-02T04:28:06.940Z,25.00
2018-06-02T04:30:34.400Z,25.17
2018-06-02T04:33:01.857Z,33.80
2018-06-02T04:35:29.451Z,36.30
2018-06-02T04:37:56.931Z,29.00
2018-06-02T04:40:24.432Z,38.27
2018-06-02T04:42:51.899Z,33.73
2018-06-02T04:45:19.375Z,35.33
2018-06-02T04:47:46.854Z,41.17
2018-06-02T04:50:14.356Z,34.90
2018-06-02T04:52:41.835Z,39.67
2018-06-02T04:55:10.052Z,49.30
2018-06-02T04:57:37.535Z,43.83
2018-06-02T05:00:04.991Z,52.97
2018-06-02T05:02:32.492Z,74.13
2018-06-02T05:05:00.713Z,80.90
2018-06-02T05:07:28.221Z,86.57
2018-06-02T05:09:55.696Z,98.33
2018-06-02T05:12:23.172Z,104.40
2018-06-02T05:14:51.413Z,107.17
2018-06-02T05:17:18.905Z,126.23
2018-06-02T05:19:47.168Z,188.73
2018-06-02T05:22:14.632Z,193.50
2018-06-02T05:24:42.889Z,192.23
2018-06-02T05:27:10.369Z,215.63
2018-06-02T05:29:37.841Z,241.77
2018-06-02T05:32:06.100Z,414.73
2018-06-02T05:34:33.605Z,467.90
2018-06-02T05:37:01.073Z,299.93
2018-06-02T05:39:28.536Z,392.53
2018-06-02T05:41:56.033Z,595.53
2018-06-02T05:44:24.276Z,337.27
2018-06-02T05:46:51.775Z,555.17
2018-06-02T05:49:19.260Z,449.70
2018-06-02T05:51:46.748Z,503.33
2018-06-02T05:54:14.232Z,562.67
2018-06-02T05:56:42.488Z,425.73
2018-06-02T05:59:09.956Z,395.03
2018-06-02T06:01:37.449Z,674.77
2018-06-02T06:04:04.919Z,362.60
2018-06-02T06:06:32.404Z,796.93
2018-06-02T06:08:59.883Z,737.17
2018-06-02T06:11:27.376Z,407.50
2018-06-02T06:13:54.832Z,396.87
2018-06-02T06:16:22.294Z,351.63
2018-06-02T06:18:49.842Z,474.63
2018-06-02T06:21:18.072Z,308.27
2018-06-02T06:23:46.335Z,533.57
2018-06-02T06:26:13.811Z,329.30
2018-06-02T06:28:41.308Z,278.67
2018-06-02T06:31:09.606Z,311.27
2018-06-02T06:33:37.108Z,414.37
2018-06-02T06:36:04.596Z,424.80
2018-06-02T06:38:32.836Z,426.43
2018-06-02T06:41:00.336Z,272.87
2018-06-02T06:43:27.795Z,272.73
2018-06-02T06:45:55.252Z,424.97
2018-06-02T06:48:22.731Z,259.97
2018-06-02T06:50:50.193Z,400.33
2018-06-02T06:53:17.692Z,256.80
2018-06-02T06:55:45.156Z,436.30
2018-06-02T06:58:13.423Z,244.63
2018-06-02T07:00:40.893Z,476.73
2018-06-02T07:03:09.167Z,280.73
2018-06-02T07:05:37.413Z,161.77
2018-06-02T07:08:04.873Z,172.47
2018-06-02T07:10:32.386Z,376.37
2018-06-02T07:13:00.617Z,196.57
2018-06-02T07:15:28.227Z,205.80
2018-06-02T07:17:55.804Z,217.20
2018-06-02T07:20:23.296Z,195.60
2018-06-02T07:22:50.764Z,371.37
2018-06-02T07:25:18.253Z,404.20
2018-06-02T07:27:45.724Z,250.33
2018-06-02T07:30:13.388Z,302.33
2018-06-02T07:32:40.899Z,313.50
2018-06-02T07:35:08.372Z,412.47
2018-06-02T07:37:36.626Z,383.17
2018-06-02T07:40:04.092Z,227.87
2018-06-02T07:42:32.425Z,441.20
2018-06-02T07:44:59.903Z,208.03
2018-06-02T07:47:27.396Z,433.70
2018-06-02T07:49:54.944Z,203.27
2018-06-02T07:52:22.543Z,411.40
2018-06-02T07:54:50.024Z,238.90
2018-06-02T07:57:17.480Z,259.50
2018-06-02T07:59:44.975Z,268.77
2018-06-02T08:02:12.445Z,257.00
2018-06-02T08:04:40.677Z,447.07
2018-06-02T08:07:11.967Z,191.53
2018-06-02T08:09:39.450Z,198.27
2018-06-02T08:12:06.971Z,248.87
2018-06-02T08:14:34.443Z,311.70
2018-06-02T08:17:02.696Z,219.20
2018-06-02T08:19:30.172Z,332.63
2018-06-02T08:21:58.432Z,198.87
2018-06-02T08:24:25.928Z,268.63
2018-06-02T08:26:53.392Z,309.67
2018-06-02T08:29:20.862Z,161.10
2018-06-02T08:31:48.325Z,276.10
2018-06-02T08:34:15.799Z,371.80
2018-06-02T08:36:43.269Z,373.23
2018-06-02T08:39:10.760Z,230.80
2018-06-02T08:41:38.231Z,328.03
2018-06-02T08:44:06.512Z,133.80
2018-06-02T08:46:35.688Z,195.03
2018-06-02T08:49:03.161Z,360.10
2018-06-02T08:51:30.652Z,413.83
2018-06-02T08:53:59.019Z,283.33
2018-06-02T08:56:26.509Z,200.67
2018-06-02T08:58:53.976Z,280.83
2018-06-02T09:01:22.213Z,172.67
2018-06-02T09:03:49.713Z,206.53
2018-06-02T09:06:17.938Z,244.23
2018-06-02T09:08:45.410Z,150.73
2018-06-02T09:11:13.084Z,350.27
2018-06-02T09:13:41.319Z,199.00
2018-06-02T09:16:08.805Z,299.50
2018-06-02T09:18:37.040Z,229.70
2018-06-02T09:21:04.525Z,234.53
2018-06-02T09:23:31.986Z,164.73
2018-06-02T09:25:59.488Z,225.47
2018-06-02T09:28:27.712Z,169.50
2018-06-02T09:30:55.172Z,259.43
2018-06-02T09:33:22.700Z,141.73
2018-06-02T09:35:50.167Z,154.27
2018-06-02T09:38:17.622Z,370.33
2018-06-02T09:40:45.104Z,171.00
2018-06-02T09:43:13.969Z,198.13
2018-06-02T09:45:41.447Z,173.47
2018-06-02T09:48:08.921Z,140.33
2018-06-02T09:50:36.371Z,129.43
2018-06-02T09:53:03.852Z,134.33
2018-06-02T09:55:31.332Z,138.97
2018-06-02T09:57:58.796Z,128.20
2018-06-02T10:00:27.024Z,115.73
2018-06-02T10:02:54.524Z,175.30
2018-06-02T10:05:22.769Z,222.87
2018-06-02T10:07:50.256Z,218.47
2018-06-02T10:10:18.484Z,216.77
2018-06-02T10:12:46.017Z,122.57
2018-06-02T10:15:13.472Z,140.47
2018-06-02T10:17:40.957Z,313.37
2018-06-02T10:20:08.422Z,268.83
2018-06-02T10:22:35.928Z,169.77
2018-06-02T10:25:04.180Z,138.07
2018-06-02T10:27:31.673Z,167.93
2018-06-02T10:29:59.159Z,140.00
2018-06-02T10:32:26.634Z,217.63
2018-06-02T10:34:54.128Z,148.73
2018-06-02T10:37:22.365Z,130.50
2018-06-02T10:39:49.868Z,157.73
2018-06-02T10:42:17.348Z,204.73
2018-06-02T10:44:44.837Z,169.83
2018-06-02T10:47:12.296Z,131.03
2018-06-02T10:49:39.787Z,126.90
2018-06-02T10:52:10.561Z,143.30
2018-06-02T10:54:55.605Z,231.17
2018-06-02T10:57:23.073Z,137.07
2018-06-02T10:59:50.548Z,153.80
2018-06-02T11:02:18.031Z,106.23
2018-06-02T11:04:45.494Z,150.63
2018-06-02T11:07:13.756Z,170.33
2018-06-02T11:09:41.212Z,151.60
2018-06-02T11:12:08.728Z,198.00
2018-06-02T11:14:36.184Z,159.87
2018-06-02T11:17:03.656Z,143.00
2018-06-02T11:19:31.159Z,89.17
2018-06-02T11:21:58.635Z,130.63
2018-06-02T11:24:26.092Z,226.13
2018-06-02T11:26:53.553Z,108.77
2018-06-02T11:29:21.076Z,94.37
2018-06-02T11:31:48.537Z,98.43
2018-06-02T11:34:16.010Z,146.83
2018-06-02T11:36:44.272Z,115.33
2018-06-02T11:39:12.497Z,98.37
2018-06-02T11:41:39.964Z,89.47
2018-06-02T11:44:07.489Z,104.07
2018-06-02T11:46:35.741Z,94.77
2018-06-02T11:49:03.210Z,73.40
2018-06-02T11:51:31.462Z,76.60
2018-06-02T11:53:58.915Z,61.90
2018-06-02T11:56:26.391Z,98.53
2018-06-02T11:58:54.624Z,74.23
2018-06-02T12:01:22.108Z,57.60
2018-06-02T12:03:49.567Z,88.90
2018-06-02T12:06:17.045Z,55.57
2018-06-02T12:08:45.264Z,62.97
2018-06-02T12:11:12.748Z,78.57
2018-06-02T12:13:40.242Z,73.23
2018-06-02T12:16:08.478Z,61.87
2018-06-02T12:18:35.936Z,36.10
2018-06-02T12:21:03.422Z,38.27
2018-06-02T12:23:31.662Z,33.27
2018-06-02T12:25:59.923Z,31.17
2018-06-02T12:28:27.444Z,37.70
2018-06-02T12:30:54.897Z,28.53
2018-06-02T12:33:23.121Z,31.03
2018-06-02T12:35:50.613Z,28.23
2018-06-02T12:38:18.105Z,33.00
2018-06-02T12:40:45.589Z,34.43
2018-06-02T12:43:13.069Z,45.20
2018-06-02T12:45:40.533Z,36.67
2018-06-02T12:48:08.049Z,33.50
2018-06-02T12:50:35.527Z,36.00
2018-06-02T12:53:03.016Z,37.37
2018-06-02T12:55:30.472Z,30.10
2018-06-02T12:57:58.704Z,34.33
2018-06-02T13:00:26.180Z,40.93
2018-06-02T13:02:53.640Z,38.27
2018-06-02T13:05:21.119Z,40.10
2018-06-02T13:07:49.356Z,34.80
2018-06-02T13:10:16.856Z,44.47
2018-06-02T13:12:45.089Z,33.77
2018-06-02T13:15:12.565Z,33.77
2018-06-02T13:17:40.047Z,31.40
2018-06-02T13:20:08.281Z,31.07
2018-06-02T13:22:35.764Z,34.40
2018-06-02T13:25:03.214Z,32.30
2018-06-02T13:27:30.692Z,39.87
2018-06-02T13:29:58.944Z,35.60
2018-06-02T13:32:26.417Z,37.67
2018-06-02T13:34:53.895Z,43.17
2018-06-02T13:37:22.143Z,37.47
2018-06-02T13:39:49.610Z,38.13
2018-06-02T13:42:17.085Z,39.00
2018-06-02T13:44:45.311Z,41.23
2018-06-02T13:47:12.795Z,39.33
2018-06-02T13:49:40.255Z,36.93
2018-06-02T13:52:07.745Z,40.87
2018-06-02T13:54:35.246Z,48.23
2018-06-02T13:57:02.717Z,36.83
2018-06-02T13:59:30.172Z,35.40
2018-06-02T14:01:57.683Z,34.00
2018-06-02T14:04:25.132Z,36.43
2018-06-02T14:06:52.593Z,33.77
2018-06-02T14:09:20.096Z,32.07
2018-06-02T14:11:47.549Z,33.73
2018-06-02T14:14:15.006Z,34.37
2018-06-02T14:16:42.488Z,35.83
2018-06-02T14:19:10.734Z,36.47
2018-06-02T14:21:38.220Z,35.73
2018-06-02T14:24:06.475Z,34.03
2018-06-02T14:26:33.944Z,34.37
2018-06-02T14:29:01.428Z,33.97
2018-06-02T14:31:29.664Z,34.27
2018-06-02T14:33:57.148Z,34.33
2018-06-02T14:36:25.407Z,33.87
2018-06-02T14:38:52.896Z,29.70
2018-06-02T14:41:20.476Z,30.13
2018-06-02T14:43:47.977Z,32.10
2018-06-02T14:46:15.637Z,31.27
2018-06-02T14:48:43.140Z,30.37
2018-06-02T14:51:11.371Z,31.30
2018-06-02T14:53:38.832Z,32.93
2018-06-02T14:56:06.317Z,31.47
2018-06-02T14:58:33.790Z,31.60
2018-06-02T15:01:01.265Z,36.93
2018-06-02T15:03:28.765Z,32.57
2018-06-02T15:05:56.243Z,32.77
2018-06-02T15:08:24.489Z,35.97
2018-06-02T15:10:51.980Z,35.97
2018-06-02T15:13:20.228Z,33.67
2018-06-02T15:15:47.694Z,35.57
2018-06-02T15:18:15.167Z,38.57
2018-06-02T15:20:43.399Z,38.23
2018-06-02T15:23:10.885Z,36.73
2018-06-02T15:25:38.338Z,41.60
2018-06-02T15:28:05.792Z,39.40
2018-06-02T15:30:33.280Z,38.83
2018-06-02T15:33:01.683Z,42.70
2018-06-02T15:35:29.160Z,38.57
2018-06-02T15:37:57.400Z,43.53
2018-06-02T15:40:25.644Z,43.80
2018-06-02T15:42:53.124Z,51.30
2018-06-02T15:45:21.343Z,45.33
2018-06-02T15:47:48.831Z,45.67
2018-06-02T15:50:16.287Z,46.33
2018-06-02T15:52:43.785Z,44.70
2018-06-02T15:55:11.246Z,45.67
2018-06-02T15:57:38.730Z,45.63
2018-06-02T16:00:06.212Z,48.03
2018-06-02T16:02:33.701Z,43.37
2018-06-02T16:05:01.925Z,49.97
2018-06-02T16:07:30.189Z,46.80
2018-06-02T16:09:57.839Z,44.90
2018-06-02T16:12:25.296Z,50.27
2018-06-02T16:14:52.785Z,47.00
2018-06-02T16:17:20.251Z,44.00
2018-06-02T16:19:48.503Z,51.40
2018-06-02T16:22:15.966Z,50.03
2018-06-02T16:24:43.440Z,51.40
2018-06-02T16:27:10.911Z,53.80
2018-06-02T16:29:38.525Z,53.20
2018-06-02T16:32:05.982Z,46.10
2018-06-02T16:34:33.437Z,51.57
2018-06-02T16:37:00.918Z,56.73
2018-06-02T16:39:28.372Z,57.07
2018-06-02T16:41:56.632Z,53.50
2018-06-02T16:44:24.089Z,50.87
2018-06-02T16:46:51.577Z,48.30
2018-06-02T16:49:19.038Z,53.17
2018-06-02T16:51:46.541Z,58.50
2018-06-02T16:54:13.994Z,51.50
2018-06-02T16:56:41.480Z,52.47
2018-06-02T16:59:08.944Z,57.13
2018-06-02T17:01:36.415Z,49.87
2018-06-02T17:04:03.874Z,57.03
2018-06-02T17:06:31.357Z,56.63
2018-06-02T17:08:59.769Z,53.67
2018-06-02T17:11:27.276Z,51.70
2018-06-02T17:13:54.758Z,60.77
2018-06-02T17:16:22.976Z,52.03
2018-06-02T17:18:50.483Z,60.80
2018-06-02T17:21:18.759Z,56.63
2018-06-02T17:23:46.226Z,62.70
2018-06-02T17:26:13.677Z,61.17
2018-06-02T17:28:41.164Z,72.87
2018-06-02T17:31:08.617Z,74.33
2018-06-02T17:33:36.131Z,76.63
2018-06-02T17:36:04.390Z,79.73
2018-06-02T17:38:31.844Z,75.53
2018-06-02T17:40:59.318Z,79.83
2018-06-02T17:43:26.773Z,74.27
2018-06-02T17:45:54.256Z,81.77
2018-06-02T17:48:22.486Z,82.47
2018-06-02T17:50:49.967Z,70.73
2018-06-02T17:53:17.447Z,73.07
2018-06-02T17:55:45.708Z,78.23
2018-06-02T17:58:13.184Z,80.90
2018-06-02T18:00:41.408Z,69.30
2018-06-02T18:03:08.891Z,70.47
2018-06-02T18:05:36.336Z,73.20
2018-06-02T18:08:03.828Z,66.63
2018-06-02T18:10:32.044Z,70.97
2018-06-02T18:12:59.536Z,72.93
2018-06-02T18:15:27.024Z,72.57
2018-06-02T18:17:54.496Z,77.17
2018-06-02T18:20:21.980Z,72.90
2018-06-02T18:22:49.448Z,72.43
2018-06-02T18:25:16.909Z,65.07
2018-06-02T18:27:44.430Z,83.30
2018-06-02T18:30:11.871Z,72.87
2018-06-02T18:32:39.389Z,70.63
2018-06-02T18:35:06.870Z,74.73
2018-06-02T18:37:35.107Z,71.20
2018-06-02T18:40:02.605Z,75.13
2018-06-02T18:42:30.921Z,75.60
2018-06-02T18:44:58.413Z,79.90
2018-06-02T18:47:25.872Z,78.87
2018-06-02T18:49:53.349Z,71.63
2018-06-02T18:52:20.800Z,78.73
2018-06-02T18:54:48.293Z,72.30
2018-06-02T18:57:15.772Z,80.23
2018-06-02T18:59:43.251Z,78.30
2018-06-02T19:02:10.717Z,75.60
2018-06-02T19:04:38.177Z,82.80
2018-06-02T19:07:05.669Z,79.73
2018-06-02T19:09:33.900Z,86.27
2018-06-02T19:12:01.457Z,73.93
2018-06-02T19:14:29.020Z,74.17
2018-06-02T19:16:56.545Z,76.47
2018-06-02T19:19:24.013Z,83.07
2018-06-02T19:21:51.484Z,84.17
2018-06-02T19:24:19.213Z,80.57
2018-06-02T19:26:46.740Z,82.00
2018-06-02T19:29:15.023Z,78.30
2018-06-02T19:31:42.464Z,77.30
2018-06-02T19:34:10.725Z,87.93
2018-06-02T19:36:38.203Z,77.73
2018-06-02T19:39:06.463Z,67.83
2018-06-02T19:41:33.931Z,65.33
2018-06-02T19:44:02.254Z,69.27
2018-06-02T19:46:29.884Z,71.97
2018-06-02T19:48:58.148Z,65.90
2018-06-02T19:51:26.461Z,74.03
2018-06-02T19:53:54.083Z,72.17
2018-06-02T19:56:21.597Z,68.03
2018-06-02T19:58:49.248Z,73.60
2018-06-02T20:01:16.783Z,84.27
2018-06-02T20:03:45.013Z,77.00
2018-06-02T20:06:12.540Z,76.87
2018-06-02T20:08:40.027Z,77.17
2018-06-02T20:11:07.484Z,75.13
2018-06-02T20:13:36.715Z,79.23
2018-06-02T20:16:05.021Z,77.20
2018-06-02T20:18:32.489Z,78.73
2018-06-02T20:20:59.991Z,73.30
2018-06-02T20:23:27.452Z,70.03
2018-06-02T20:25:54.908Z,72.33
2018-06-02T20:28:22.388Z,71.47
2018-06-02T20:30:50.709Z,76.40
2018-06-02T20:33:18.256Z,77.40
2018-06-02T20:35:45.896Z,78.63
2018-06-02T20:38:13.378Z,79.97
2018-06-02T20:40:40.869Z,85.07
2018-06-02T20:43:08.332Z,75.27
2018-06-02T20:45:35.816Z,80.00
2018-06-02T20:48:03.269Z,82.40
2018-06-02T20:50:31.532Z,77.37
2018-06-02T20:52:59.784Z,76.83
2018-06-02T20:55:27.270Z,77.07
2018-06-02T20:57:55.511Z,77.63
2018-06-02T21:00:23.004Z,72.40
2018-06-02T21:02:51.254Z,73.70
2018-06-02T21:05:18.716Z,73.93
2018-06-02T21:07:46.210Z,67.90
2018-06-02T21:10:13.718Z,68.13
2018-06-02T21:12:41.163Z,67.63
2018-06-02T21:15:08.670Z,76.23
2018-06-02T21:17:36.141Z,74.50
2018-06-02T21:20:03.591Z,75.47
2018-06-02T21:22:31.091Z,72.07
2018-06-02T21:24:58.572Z,82.10
2018-06-02T21:27:26.056Z,70.60
2018-06-02T21:29:53.508Z,74.17
2018-06-02T21:32:20.982Z,75.80
2018-06-02T21:34:48.480Z,77.00
2018-06-02T21:37:15.940Z,64.60
2018-06-02T21:39:43.424Z,62.60
2018-06-02T21:42:10.900Z,59.90
2018-06-02T21:44:39.123Z,69.70
2018-06-02T21:47:07.366Z,68.83
2018-06-02T21:49:34.878Z,72.13
2018-06-02T21:52:02.340Z,72.43
2018-06-02T21:54:29.819Z,73.67
2018-06-02T21:56:58.080Z,73.97
2018-06-02T21:59:25.562Z,70.73
2018-06-02T22:01:53.081Z,79.93
2018-06-02T22:04:20.548Z,69.10
2018-06-02T22:06:48.011Z,62.30
2018-06-02T22:09:15.517Z,61.43
2018-06-02T22:11:42.975Z,53.83
2018-06-02T22:14:10.432Z,64.50
2018-06-02T22:16:37.938Z,54.50
2018-06-02T22:19:05.425Z,55.23
2018-06-02T22:21:33.469Z,74.53
2018-06-02T22:24:00.929Z,49.67
2018-06-02T22:26:29.152Z,72.13
2018-06-02T22:28:56.636Z,52.97
2018-06-02T22:31:24.112Z,48.00
2018-06-02T22:33:51.589Z,53.43
2018-06-02T22:36:19.911Z,52.90
2018-06-02T22:38:48.068Z,51.70
2018-06-02T22:41:15.554Z,55.50
2018-06-02T22:43:43.031Z,55.63
2018-06-02T22:46:10.511Z,55.20
2018-06-02T22:48:38.756Z,54.90
2018-06-02T22:51:06.236Z,53.00
2018-06-02T22:53:34.456Z,56.27
2018-06-02T22:56:01.949Z,60.13
2018-06-02T22:58:29.413Z,66.83
2018-06-02T23:00:56.891Z,63.10
2018-06-02T23:03:25.131Z,65.87
2018-06-02T23:05:53.376Z,71.23
2018-06-02T23:08:20.829Z,76.87
2018-06-02T23:10:48.288Z,79.70
2018-06-02T23:13:15.792Z,86.33
2018-06-02T23:15:43.297Z,87.40
2018-06-02T23:18:10.847Z,90.27
2018-06-02T23:20:38.309Z,91.00
2018-06-02T23:23:05.784Z,99.37
2018-06-02T23:25:33.248Z,108.23
2018-06-02T23:28:00.743Z,104.00
2018-06-02T23:30:28.985Z,101.13
2018-06-02T23:32:56.449Z,111.37
2018-06-02T23:35:23.941Z,109.53
2018-06-02T23:37:52.164Z,118.87
2018-06-02T23:40:19.652Z,115.33
2018-06-02T23:42:47.140Z,121.83
2018-06-02T23:45:15.367Z,113.77
2018-06-02T23:47:42.847Z,129.57
2018-06-02T23:50:10.352Z,128.53
2018-06-02T23:52:37.769Z,131.93
2018-06-02T23:55:05.246Z,130.20
2018-06-02T23:57:33.474Z,128.37
